sensor_id;sensor_type;location;lat;lon;timestamp;P1;durP1;ratioP1;P2;durP2;ratioP2
19179;SDS011;9722;48.754;8.868;2024-02-21T00:00:43;4.53;;;3.67;;
19179;SDS011;9722;48.754;8.868;2024-02-21T00:04:03;5.77;;;3.00;;
19179;SDS011;9722;48.754;8.868;2024-02-21T00:07:24;4.67;;;2.97;;
19179;SDS011;9722;48.754;8.868;2024-02-21T00:10:45;6.53;;;3.43;;
19179;SDS011;9722;48.754;8.868;2024-02-21T00:14:05;4.70;;;2.93;;
19179;SDS011;9722;48.754;8.868;2024-02-21T00:17:26;5.33;;;2.77;;
19179;SDS011;9722;48.754;8.868;2024-02-21T00:20:46;5.47;;;3.10;;
19179;SDS011;9722;48.754;8.868;2024-02-21T00:24:07;5.83;;;2.50;;
19179;SDS011;9722;48.754;8.868;2024-02-21T00:27:27;7.77;;;2.57;;
19179;SDS011;9722;48.754;8.868;2024-02-21T00:30:48;6.57;;;3.03;;
19179;SDS011;9722;48.754;8.868;2024-02-21T00:34:10;3.07;;;2.77;;
19179;SDS011;9722;48.754;8.868;2024-02-21T00:37:32;3.57;;;2.67;;
19179;SDS011;9722;48.754;8.868;2024-02-21T00:40:52;6.60;;;3.00;;
19179;SDS011;9722;48.754;8.868;2024-02-21T00:44:13;7.73;;;2.80;;
19179;SDS011;9722;48.754;8.868;2024-02-21T00:47:33;5.90;;;2.90;;
19179;SDS011;9722;48.754;8.868;2024-02-21T00:50:54;5.73;;;2.97;;
19179;SDS011;9722;48.754;8.868;2024-02-21T00:54:14;3.83;;;2.60;;
19179;SDS011;9722;48.754;8.868;2024-02-21T00:57:36;8.07;;;3.13;;
19179;SDS011;9722;48.754;8.868;2024-02-21T01:00:56;5.10;;;3.30;;
19179;SDS011;9722;48.754;8.868;2024-02-21T01:04:17;8.13;;;3.80;;
19179;SDS011;9722;48.754;8.868;2024-02-21T01:07:37;7.27;;;3.97;;
19179;SDS011;9722;48.754;8.868;2024-02-21T01:10:58;4.93;;;3.10;;
19179;SDS011;9722;48.754;8.868;2024-02-21T01:14:18;3.97;;;3.47;;
19179;SDS011;9722;48.754;8.868;2024-02-21T01:17:39;5.40;;;3.57;;
19179;SDS011;9722;48.754;8.868;2024-02-21T01:21:00;6.87;;;3.10;;
19179;SDS011;9722;48.754;8.868;2024-02-21T01:24:21;4.97;;;2.03;;
19179;SDS011;9722;48.754;8.868;2024-02-21T01:27:41;6.70;;;2.43;;
19179;SDS011;9722;48.754;8.868;2024-02-21T01:31:02;4.47;;;2.20;;
19179;SDS011;9722;48.754;8.868;2024-02-21T01:34:23;2.87;;;2.33;;
19179;SDS011;9722;48.754;8.868;2024-02-21T01:37:44;3.63;;;2.30;;
19179;SDS011;9722;48.754;8.868;2024-02-21T01:41:04;4.73;;;2.30;;
19179;SDS011;9722;48.754;8.868;2024-02-21T01:44:25;5.20;;;2.37;;
19179;SDS011;9722;48.754;8.868;2024-02-21T01:47:46;3.97;;;2.40;;
19179;SDS011;9722;48.754;8.868;2024-02-21T01:51:06;4.90;;;2.17;;
19179;SDS011;9722;48.754;8.868;2024-02-21T01:54:27;4.33;;;2.37;;
19179;SDS011;9722;48.754;8.868;2024-02-21T01:57:51;8.30;;;2.47;;
19179;SDS011;9722;48.754;8.868;2024-02-21T02:01:11;5.30;;;2.47;;
19179;SDS011;9722;48.754;8.868;2024-02-21T02:04:32;3.23;;;2.07;;
19179;SDS011;9722;48.754;8.868;2024-02-21T02:07:54;3.07;;;2.40;;
19179;SDS011;9722;48.754;8.868;2024-02-21T02:11:15;4.63;;;2.20;;
19179;SDS011;9722;48.754;8.868;2024-02-21T02:14:36;3.40;;;2.07;;
19179;SDS011;9722;48.754;8.868;2024-02-21T02:17:56;5.23;;;2.50;;
19179;SDS011;9722;48.754;8.868;2024-02-21T02:21:23;5.80;;;2.60;;
19179;SDS011;9722;48.754;8.868;2024-02-21T02:24:52;5.70;;;2.00;;
19179;SDS011;9722;48.754;8.868;2024-02-21T02:28:13;5.90;;;2.60;;
19179;SDS011;9722;48.754;8.868;2024-02-21T02:31:33;3.67;;;2.50;;
19179;SDS011;9722;48.754;8.868;2024-02-21T02:34:54;5.10;;;2.60;;
19179;SDS011;9722;48.754;8.868;2024-02-21T02:38:15;4.97;;;2.23;;
19179;SDS011;9722;48.754;8.868;2024-02-21T02:41:36;5.63;;;2.50;;
19179;SDS011;9722;48.754;8.868;2024-02-21T02:44:56;4.57;;;2.17;;
19179;SDS011;9722;48.754;8.868;2024-02-21T02:48:17;4.53;;;1.93;;
19179;SDS011;9722;48.754;8.868;2024-02-21T02:51:43;4.70;;;2.13;;
19179;SDS011;9722;48.754;8.868;2024-02-21T02:55:04;4.40;;;2.10;;
19179;SDS011;9722;48.754;8.868;2024-02-21T02:58:25;5.40;;;2.40;;
19179;SDS011;9722;48.754;8.868;2024-02-21T03:01:46;3.90;;;2.17;;
19179;SDS011;9722;48.754;8.868;2024-02-21T03:05:13;4.70;;;2.23;;
19179;SDS011;9722;48.754;8.868;2024-02-21T03:08:41;2.50;;;1.67;;
19179;SDS011;9722;48.754;8.868;2024-02-21T03:12:02;3.23;;;1.70;;
19179;SDS011;9722;48.754;8.868;2024-02-21T03:15:23;3.00;;;1.83;;
19179;SDS011;9722;48.754;8.868;2024-02-21T03:18:44;6.10;;;2.40;;
19179;SDS011;9722;48.754;8.868;2024-02-21T03:22:05;3.83;;;2.23;;
19179;SDS011;9722;48.754;8.868;2024-02-21T03:25:26;3.13;;;1.90;;
19179;SDS011;9722;48.754;8.868;2024-02-21T03:28:46;3.97;;;2.37;;
19179;SDS011;9722;48.754;8.868;2024-02-21T03:32:07;4.20;;;1.90;;
19179;SDS011;9722;48.754;8.868;2024-02-21T03:35:27;4.80;;;1.87;;
19179;SDS011;9722;48.754;8.868;2024-02-21T03:38:47;5.50;;;1.83;;
19179;SDS011;9722;48.754;8.868;2024-02-21T03:42:08;4.33;;;2.13;;
19179;SDS011;9722;48.754;8.868;2024-02-21T03:45:28;6.37;;;2.13;;
19179;SDS011;9722;48.754;8.868;2024-02-21T03:48:49;3.17;;;1.80;;
19179;SDS011;9722;48.754;8.868;2024-02-21T03:52:10;3.70;;;1.70;;
19179;SDS011;9722;48.754;8.868;2024-02-21T03:55:30;4.73;;;1.90;;
19179;SDS011;9722;48.754;8.868;2024-02-21T03:58:51;3.07;;;1.93;;
19179;SDS011;9722;48.754;8.868;2024-02-21T04:02:11;4.00;;;1.87;;
19179;SDS011;9722;48.754;8.868;2024-02-21T04:05:32;3.40;;;2.10;;
19179;SDS011;9722;48.754;8.868;2024-02-21T04:08:53;5.83;;;1.97;;
19179;SDS011;9722;48.754;8.868;2024-02-21T04:12:13;4.50;;;1.90;;
19179;SDS011;9722;48.754;8.868;2024-02-21T04:15:34;2.43;;;1.90;;
19179;SDS011;9722;48.754;8.868;2024-02-21T04:18:55;8.13;;;2.73;;
19179;SDS011;9722;48.754;8.868;2024-02-21T04:22:15;4.17;;;2.13;;
19179;SDS011;9722;48.754;8.868;2024-02-21T04:25:36;4.70;;;2.00;;
19179;SDS011;9722;48.754;8.868;2024-02-21T04:28:56;4.67;;;2.00;;
19179;SDS011;9722;48.754;8.868;2024-02-21T04:32:17;4.77;;;2.47;;
19179;SDS011;9722;48.754;8.868;2024-02-21T04:35:37;5.30;;;2.10;;
19179;SDS011;9722;48.754;8.868;2024-02-21T04:38:59;3.67;;;1.83;;
19179;SDS011;9722;48.754;8.868;2024-02-21T04:42:19;2.90;;;1.97;;
19179;SDS011;9722;48.754;8.868;2024-02-21T04:45:40;6.93;;;2.03;;
19179;SDS011;9722;48.754;8.868;2024-02-21T04:49:00;4.67;;;2.23;;
19179;SDS011;9722;48.754;8.868;2024-02-21T04:52:21;4.63;;;2.07;;
19179;SDS011;9722;48.754;8.868;2024-02-21T04:55:41;3.73;;;1.90;;
19179;SDS011;9722;48.754;8.868;2024-02-21T04:59:03;4.63;;;2.20;;
19179;SDS011;9722;48.754;8.868;2024-02-21T05:02:24;3.77;;;1.70;;
19179;SDS011;9722;48.754;8.868;2024-02-21T05:05:44;3.07;;;1.83;;
19179;SDS011;9722;48.754;8.868;2024-02-21T05:09:05;2.37;;;1.97;;
19179;SDS011;9722;48.754;8.868;2024-02-21T05:12:26;2.93;;;1.87;;
19179;SDS011;9722;48.754;8.868;2024-02-21T05:15:47;5.37;;;2.20;;
19179;SDS011;9722;48.754;8.868;2024-02-21T05:19:08;4.40;;;2.00;;
19179;SDS011;9722;48.754;8.868;2024-02-21T05:22:28;6.43;;;2.43;;
19179;SDS011;9722;48.754;8.868;2024-02-21T05:25:49;4.47;;;2.17;;
19179;SDS011;9722;48.754;8.868;2024-02-21T05:29:09;3.10;;;1.90;;
19179;SDS011;9722;48.754;8.868;2024-02-21T05:32:29;5.17;;;2.07;;
19179;SDS011;9722;48.754;8.868;2024-02-21T05:35:50;2.97;;;2.17;;
19179;SDS011;9722;48.754;8.868;2024-02-21T05:39:11;4.77;;;2.13;;
19179;SDS011;9722;48.754;8.868;2024-02-21T05:42:32;4.63;;;2.47;;
19179;SDS011;9722;48.754;8.868;2024-02-21T05:45:52;2.40;;;2.20;;
19179;SDS011;9722;48.754;8.868;2024-02-21T05:49:13;4.67;;;2.30;;
19179;SDS011;9722;48.754;8.868;2024-02-21T05:52:34;6.47;;;2.00;;
19179;SDS011;9722;48.754;8.868;2024-02-21T05:55:54;2.63;;;1.90;;
19179;SDS011;9722;48.754;8.868;2024-02-21T05:59:15;5.27;;;2.37;;
19179;SDS011;9722;48.754;8.868;2024-02-21T06:02:35;5.97;;;3.53;;
19179;SDS011;9722;48.754;8.868;2024-02-21T06:05:56;6.83;;;2.30;;
19179;SDS011;9722;48.754;8.868;2024-02-21T06:09:18;4.63;;;2.33;;
19179;SDS011;9722;48.754;8.868;2024-02-21T06:12:38;2.40;;;2.20;;
19179;SDS011;9722;48.754;8.868;2024-02-21T06:15:58;4.23;;;2.57;;
19179;SDS011;9722;48.754;8.868;2024-02-21T06:19:19;4.03;;;2.23;;
19179;SDS011;9722;48.754;8.868;2024-02-21T06:22:39;3.63;;;2.07;;
19179;SDS011;9722;48.754;8.868;2024-02-21T06:26:00;4.03;;;2.00;;
19179;SDS011;9722;48.754;8.868;2024-02-21T06:29:20;6.17;;;2.00;;
19179;SDS011;9722;48.754;8.868;2024-02-21T06:32:41;4.70;;;2.33;;
19179;SDS011;9722;48.754;8.868;2024-02-21T06:36:01;4.47;;;1.97;;
19179;SDS011;9722;48.754;8.868;2024-02-21T06:39:22;4.50;;;1.83;;
19179;SDS011;9722;48.754;8.868;2024-02-21T06:42:43;2.93;;;2.10;;
19179;SDS011;9722;48.754;8.868;2024-02-21T06:46:03;3.17;;;1.93;;
19179;SDS011;9722;48.754;8.868;2024-02-21T06:49:24;4.87;;;2.53;;
19179;SDS011;9722;48.754;8.868;2024-02-21T06:52:44;4.17;;;2.03;;
19179;SDS011;9722;48.754;8.868;2024-02-21T06:56:05;3.40;;;2.70;;
19179;SDS011;9722;48.754;8.868;2024-02-21T06:59:26;3.90;;;2.30;;
19179;SDS011;9722;48.754;8.868;2024-02-21T07:02:47;4.90;;;2.33;;
19179;SDS011;9722;48.754;8.868;2024-02-21T07:06:08;8.00;;;2.67;;
19179;SDS011;9722;48.754;8.868;2024-02-21T07:09:28;2.90;;;2.30;;
19179;SDS011;9722;48.754;8.868;2024-02-21T07:12:51;5.07;;;2.70;;
19179;SDS011;9722;48.754;8.868;2024-02-21T07:16:12;2.47;;;2.20;;
19179;SDS011;9722;48.754;8.868;2024-02-21T07:19:33;3.17;;;2.67;;
19179;SDS011;9722;48.754;8.868;2024-02-21T07:22:55;4.27;;;2.87;;
19179;SDS011;9722;48.754;8.868;2024-02-21T07:26:15;4.00;;;2.67;;
19179;SDS011;9722;48.754;8.868;2024-02-21T07:29:36;4.37;;;2.20;;
19179;SDS011;9722;48.754;8.868;2024-02-21T07:32:56;2.57;;;2.03;;
19179;SDS011;9722;48.754;8.868;2024-02-21T07:36:25;3.13;;;2.00;;
19179;SDS011;9722;48.754;8.868;2024-02-21T07:39:52;4.70;;;2.53;;
19179;SDS011;9722;48.754;8.868;2024-02-21T07:43:12;3.43;;;2.80;;
19179;SDS011;9722;48.754;8.868;2024-02-21T07:46:33;4.40;;;3.03;;
19179;SDS011;9722;48.754;8.868;2024-02-21T07:49:54;4.87;;;2.93;;
19179;SDS011;9722;48.754;8.868;2024-02-21T07:53:14;5.17;;;3.20;;
19179;SDS011;9722;48.754;8.868;2024-02-21T07:56:35;5.07;;;2.80;;
19179;SDS011;9722;48.754;8.868;2024-02-21T07:59:55;5.43;;;2.90;;
19179;SDS011;9722;48.754;8.868;2024-02-21T08:03:16;3.57;;;3.27;;
19179;SDS011;9722;48.754;8.868;2024-02-21T08:06:37;6.37;;;3.07;;
19179;SDS011;9722;48.754;8.868;2024-02-21T08:09:58;3.33;;;1.93;;
19179;SDS011;9722;48.754;8.868;2024-02-21T08:13:18;5.03;;;2.10;;
19179;SDS011;9722;48.754;8.868;2024-02-21T08:16:39;9.13;;;2.40;;
19179;SDS011;9722;48.754;8.868;2024-02-21T08:19:59;3.03;;;1.77;;
19179;SDS011;9722;48.754;8.868;2024-02-21T08:23:22;5.87;;;1.97;;
19179;SDS011;9722;48.754;8.868;2024-02-21T08:26:43;4.57;;;2.30;;
19179;SDS011;9722;48.754;8.868;2024-02-21T08:30:07;4.40;;;2.13;;
19179;SDS011;9722;48.754;8.868;2024-02-21T08:33:28;5.13;;;2.03;;
19179;SDS011;9722;48.754;8.868;2024-02-21T08:36:49;4.90;;;1.70;;
19179;SDS011;9722;48.754;8.868;2024-02-21T08:40:10;3.07;;;1.50;;
19179;SDS011;9722;48.754;8.868;2024-02-21T08:43:31;3.13;;;1.60;;
19179;SDS011;9722;48.754;8.868;2024-02-21T08:46:53;2.90;;;1.70;;
19179;SDS011;9722;48.754;8.868;2024-02-21T08:50:13;4.03;;;1.77;;
19179;SDS011;9722;48.754;8.868;2024-02-21T08:53:34;3.37;;;1.63;;
19179;SDS011;9722;48.754;8.868;2024-02-21T08:56:54;2.37;;;1.57;;
19179;SDS011;9722;48.754;8.868;2024-02-21T09:00:15;4.00;;;1.53;;
19179;SDS011;9722;48.754;8.868;2024-02-21T09:03:36;1.93;;;1.17;;
19179;SDS011;9722;48.754;8.868;2024-02-21T09:06:57;3.07;;;1.63;;
19179;SDS011;9722;48.754;8.868;2024-02-21T09:10:18;4.87;;;1.70;;
19179;SDS011;9722;48.754;8.868;2024-02-21T09:13:38;2.87;;;1.50;;
19179;SDS011;9722;48.754;8.868;2024-02-21T09:16:59;3.60;;;1.60;;
19179;SDS011;9722;48.754;8.868;2024-02-21T09:20:19;2.43;;;1.53;;
19179;SDS011;9722;48.754;8.868;2024-02-21T09:23:40;3.33;;;1.43;;
19179;SDS011;9722;48.754;8.868;2024-02-21T09:27:00;2.33;;;1.00;;
19179;SDS011;9722;48.754;8.868;2024-02-21T09:30:21;3.37;;;1.50;;
19179;SDS011;9722;48.754;8.868;2024-02-21T09:33:41;3.17;;;1.70;;
19179;SDS011;9722;48.754;8.868;2024-02-21T09:37:01;2.27;;;1.27;;
19179;SDS011;9722;48.754;8.868;2024-02-21T09:40:22;4.70;;;1.43;;
19179;SDS011;9722;48.754;8.868;2024-02-21T09:43:43;3.00;;;1.50;;
19179;SDS011;9722;48.754;8.868;2024-02-21T09:47:49;3.93;;;1.20;;
19179;SDS011;9722;48.754;8.868;2024-02-21T09:50:54;4.73;;;1.50;;
19179;SDS011;9722;48.754;8.868;2024-02-21T09:54:16;4.50;;;1.50;;
19179;SDS011;9722;48.754;8.868;2024-02-21T09:57:38;3.50;;;1.30;;
19179;SDS011;9722;48.754;8.868;2024-02-21T10:00:59;4.03;;;1.30;;
19179;SDS011;9722;48.754;8.868;2024-02-21T10:04:20;4.30;;;1.50;;
19179;SDS011;9722;48.754;8.868;2024-02-21T10:07:41;2.73;;;1.40;;
19179;SDS011;9722;48.754;8.868;2024-02-21T10:11:01;3.30;;;1.53;;
19179;SDS011;9722;48.754;8.868;2024-02-21T10:14:22;2.90;;;1.50;;
19179;SDS011;9722;48.754;8.868;2024-02-21T10:17:43;2.00;;;1.20;;
19179;SDS011;9722;48.754;8.868;2024-02-21T10:21:04;2.23;;;1.20;;
19179;SDS011;9722;48.754;8.868;2024-02-21T10:24:26;2.67;;;1.07;;
19179;SDS011;9722;48.754;8.868;2024-02-21T10:27:48;3.23;;;1.30;;
19179;SDS011;9722;48.754;8.868;2024-02-21T10:31:11;2.20;;;1.20;;
19179;SDS011;9722;48.754;8.868;2024-02-21T10:34:44;3.17;;;1.20;;
19179;SDS011;9722;48.754;8.868;2024-02-21T10:38:06;2.20;;;1.33;;
19179;SDS011;9722;48.754;8.868;2024-02-21T10:41:26;5.27;;;1.10;;
19179;SDS011;9722;48.754;8.868;2024-02-21T10:44:50;2.33;;;1.60;;
19179;SDS011;9722;48.754;8.868;2024-02-21T10:48:12;4.30;;;1.57;;
19179;SDS011;9722;48.754;8.868;2024-02-21T10:51:34;2.83;;;1.10;;
19179;SDS011;9722;48.754;8.868;2024-02-21T10:55:07;1.27;;;1.00;;
19179;SDS011;9722;48.754;8.868;2024-02-21T10:58:31;2.10;;;0.93;;
19179;SDS011;9722;48.754;8.868;2024-02-21T11:01:52;1.53;;;1.30;;
19179;SDS011;9722;48.754;8.868;2024-02-21T11:05:13;1.47;;;0.90;;
19179;SDS011;9722;48.754;8.868;2024-02-21T11:08:35;2.00;;;1.10;;
19179;SDS011;9722;48.754;8.868;2024-02-21T11:11:55;3.03;;;1.10;;
19179;SDS011;9722;48.754;8.868;2024-02-21T11:15:18;1.33;;;0.90;;
19179;SDS011;9722;48.754;8.868;2024-02-21T11:18:39;2.20;;;1.00;;
19179;SDS011;9722;48.754;8.868;2024-02-21T11:21:59;2.17;;;1.20;;
19179;SDS011;9722;48.754;8.868;2024-02-21T11:25:21;1.70;;;1.00;;
19179;SDS011;9722;48.754;8.868;2024-02-21T11:28:42;3.80;;;0.97;;
19179;SDS011;9722;48.754;8.868;2024-02-21T11:32:04;2.07;;;1.20;;
19179;SDS011;9722;48.754;8.868;2024-02-21T11:35:24;1.20;;;0.93;;
19179;SDS011;9722;48.754;8.868;2024-02-21T11:38:50;2.53;;;1.10;;
19179;SDS011;9722;48.754;8.868;2024-02-21T11:42:13;2.87;;;1.40;;
19179;SDS011;9722;48.754;8.868;2024-02-21T11:45:33;2.20;;;0.90;;
19179;SDS011;9722;48.754;8.868;2024-02-21T11:48:54;2.50;;;0.90;;
19179;SDS011;9722;48.754;8.868;2024-02-21T11:52:14;1.70;;;1.10;;
19179;SDS011;9722;48.754;8.868;2024-02-21T11:55:35;2.40;;;1.00;;
19179;SDS011;9722;48.754;8.868;2024-02-21T11:58:56;1.33;;;0.90;;
19179;SDS011;9722;48.754;8.868;2024-02-21T12:02:19;1.20;;;0.93;;
19179;SDS011;9722;48.754;8.868;2024-02-21T12:05:40;2.07;;;0.90;;
19179;SDS011;9722;48.754;8.868;2024-02-21T12:09:01;0.80;;;0.70;;
19179;SDS011;9722;48.754;8.868;2024-02-21T12:12:22;1.17;;;1.00;;
19179;SDS011;9722;48.754;8.868;2024-02-21T12:15:46;1.50;;;0.80;;
19179;SDS011;9722;48.754;8.868;2024-02-21T12:19:08;1.90;;;0.90;;
19179;SDS011;9722;48.754;8.868;2024-02-21T12:22:29;1.37;;;0.73;;
19179;SDS011;9722;48.754;8.868;2024-02-21T12:25:52;1.90;;;0.70;;
19179;SDS011;9722;48.754;8.868;2024-02-21T12:29:15;1.40;;;0.77;;
19179;SDS011;9722;48.754;8.868;2024-02-21T12:32:36;1.47;;;0.97;;
19179;SDS011;9722;48.754;8.868;2024-02-21T12:35:56;1.73;;;0.80;;
19179;SDS011;9722;48.754;8.868;2024-02-21T12:39:17;1.57;;;0.67;;
19179;SDS011;9722;48.754;8.868;2024-02-21T12:42:37;1.27;;;0.70;;
19179;SDS011;9722;48.754;8.868;2024-02-21T12:45:58;0.83;;;0.53;;
19179;SDS011;9722;48.754;8.868;2024-02-21T12:49:19;1.93;;;0.70;;
19179;SDS011;9722;48.754;8.868;2024-02-21T12:52:39;1.53;;;0.60;;
19179;SDS011;9722;48.754;8.868;2024-02-21T12:56:00;1.70;;;0.60;;
19179;SDS011;9722;48.754;8.868;2024-02-21T12:59:20;1.37;;;0.70;;
19179;SDS011;9722;48.754;8.868;2024-02-21T13:02:41;1.17;;;0.77;;
19179;SDS011;9722;48.754;8.868;2024-02-21T13:06:02;1.00;;;0.70;;
19179;SDS011;9722;48.754;8.868;2024-02-21T13:09:23;1.80;;;1.10;;
19179;SDS011;9722;48.754;8.868;2024-02-21T13:12:44;1.83;;;0.97;;
19179;SDS011;9722;48.754;8.868;2024-02-21T13:16:04;1.40;;;0.90;;
19179;SDS011;9722;48.754;8.868;2024-02-21T13:19:25;1.00;;;0.90;;
19179;SDS011;9722;48.754;8.868;2024-02-21T13:22:46;0.87;;;0.57;;
19179;SDS011;9722;48.754;8.868;2024-02-21T13:26:06;0.70;;;0.53;;
19179;SDS011;9722;48.754;8.868;2024-02-21T13:29:27;0.77;;;0.50;;
19179;SDS011;9722;48.754;8.868;2024-02-21T13:32:48;0.93;;;0.50;;
19179;SDS011;9722;48.754;8.868;2024-02-21T13:36:09;1.00;;;0.57;;
19179;SDS011;9722;48.754;8.868;2024-02-21T13:39:30;1.33;;;0.80;;
19179;SDS011;9722;48.754;8.868;2024-02-21T13:42:54;1.20;;;0.80;;
19179;SDS011;9722;48.754;8.868;2024-02-21T13:46:15;1.30;;;0.43;;
19179;SDS011;9722;48.754;8.868;2024-02-21T13:49:35;0.73;;;0.40;;
19179;SDS011;9722;48.754;8.868;2024-02-21T13:52:56;1.37;;;0.80;;
19179;SDS011;9722;48.754;8.868;2024-02-21T13:56:16;0.50;;;0.50;;
19179;SDS011;9722;48.754;8.868;2024-02-21T13:59:37;0.47;;;0.40;;
19179;SDS011;9722;48.754;8.868;2024-02-21T14:02:59;1.13;;;0.60;;
19179;SDS011;9722;48.754;8.868;2024-02-21T14:06:21;0.50;;;0.50;;
19179;SDS011;9722;48.754;8.868;2024-02-21T14:09:41;0.40;;;0.40;;
19179;SDS011;9722;48.754;8.868;2024-02-21T14:13:02;0.40;;;0.40;;
19179;SDS011;9722;48.754;8.868;2024-02-21T14:16:22;1.13;;;0.50;;
19179;SDS011;9722;48.754;8.868;2024-02-21T14:19:43;0.70;;;0.50;;
19179;SDS011;9722;48.754;8.868;2024-02-21T14:23:04;1.90;;;0.80;;
19179;SDS011;9722;48.754;8.868;2024-02-21T14:26:24;1.40;;;0.50;;
19179;SDS011;9722;48.754;8.868;2024-02-21T14:29:45;0.60;;;0.60;;
19179;SDS011;9722;48.754;8.868;2024-02-21T14:33:05;2.43;;;0.90;;
19179;SDS011;9722;48.754;8.868;2024-02-21T14:36:27;2.73;;;0.80;;
19179;SDS011;9722;48.754;8.868;2024-02-21T14:39:48;2.07;;;0.90;;
19179;SDS011;9722;48.754;8.868;2024-02-21T14:43:08;1.10;;;1.00;;
19179;SDS011;9722;48.754;8.868;2024-02-21T14:46:29;1.00;;;0.90;;
19179;SDS011;9722;48.754;8.868;2024-02-21T14:49:49;1.40;;;1.23;;
19179;SDS011;9722;48.754;8.868;2024-02-21T14:53:10;1.67;;;1.10;;
19179;SDS011;9722;48.754;8.868;2024-02-21T14:56:30;1.20;;;1.20;;
19179;SDS011;9722;48.754;8.868;2024-02-21T14:59:51;1.23;;;1.10;;
19179;SDS011;9722;48.754;8.868;2024-02-21T15:03:16;1.20;;;1.10;;
19179;SDS011;9722;48.754;8.868;2024-02-21T15:06:39;1.73;;;1.50;;
19179;SDS011;9722;48.754;8.868;2024-02-21T15:10:00;1.27;;;0.90;;
19179;SDS011;9722;48.754;8.868;2024-02-21T15:13:21;1.17;;;1.13;;
19179;SDS011;9722;48.754;8.868;2024-02-21T15:16:42;1.17;;;1.07;;
19179;SDS011;9722;48.754;8.868;2024-02-21T15:20:02;3.17;;;1.27;;
19179;SDS011;9722;48.754;8.868;2024-02-21T15:23:27;1.93;;;1.70;;
19179;SDS011;9722;48.754;8.868;2024-02-21T15:26:47;3.93;;;2.00;;
19179;SDS011;9722;48.754;8.868;2024-02-21T15:30:09;1.90;;;1.53;;
19179;SDS011;9722;48.754;8.868;2024-02-21T15:33:30;1.27;;;1.17;;
19179;SDS011;9722;48.754;8.868;2024-02-21T15:36:50;2.13;;;1.40;;
19179;SDS011;9722;48.754;8.868;2024-02-21T15:40:11;1.77;;;1.60;;
19179;SDS011;9722;48.754;8.868;2024-02-21T15:43:32;1.33;;;0.90;;
19179;SDS011;9722;48.754;8.868;2024-02-21T15:46:53;0.60;;;0.60;;
19179;SDS011;9722;48.754;8.868;2024-02-21T15:50:13;1.20;;;0.57;;
19179;SDS011;9722;48.754;8.868;2024-02-21T15:53:34;0.87;;;0.83;;
19179;SDS011;9722;48.754;8.868;2024-02-21T15:56:55;0.70;;;0.67;;
19179;SDS011;9722;48.754;8.868;2024-02-21T16:00:16;1.43;;;0.70;;
19179;SDS011;9722;48.754;8.868;2024-02-21T16:03:37;1.10;;;1.00;;
19179;SDS011;9722;48.754;8.868;2024-02-21T16:07:00;0.60;;;0.60;;
19179;SDS011;9722;48.754;8.868;2024-02-21T16:10:21;3.97;;;0.80;;
19179;SDS011;9722;48.754;8.868;2024-02-21T16:13:41;2.80;;;0.80;;
19179;SDS011;9722;48.754;8.868;2024-02-21T16:17:06;1.20;;;1.00;;
19179;SDS011;9722;48.754;8.868;2024-02-21T16:20:27;2.13;;;1.13;;
19179;SDS011;9722;48.754;8.868;2024-02-21T16:23:47;1.90;;;1.60;;
19179;SDS011;9722;48.754;8.868;2024-02-21T16:27:08;0.97;;;0.93;;
19179;SDS011;9722;48.754;8.868;2024-02-21T16:30:29;1.57;;;0.93;;
19179;SDS011;9722;48.754;8.868;2024-02-21T16:33:49;4.23;;;0.80;;
19179;SDS011;9722;48.754;8.868;2024-02-21T16:37:11;1.13;;;0.80;;
19179;SDS011;9722;48.754;8.868;2024-02-21T16:40:32;1.20;;;1.00;;
19179;SDS011;9722;48.754;8.868;2024-02-21T16:43:53;1.50;;;1.20;;
19179;SDS011;9722;48.754;8.868;2024-02-21T16:47:14;0.80;;;0.80;;
19179;SDS011;9722;48.754;8.868;2024-02-21T16:50:34;0.77;;;0.70;;
19179;SDS011;9722;48.754;8.868;2024-02-21T16:53:55;1.27;;;1.13;;
19179;SDS011;9722;48.754;8.868;2024-02-21T16:57:15;1.33;;;1.10;;
19179;SDS011;9722;48.754;8.868;2024-02-21T17:00:36;1.20;;;1.10;;
19179;SDS011;9722;48.754;8.868;2024-02-21T17:03:59;1.20;;;1.10;;
19179;SDS011;9722;48.754;8.868;2024-02-21T17:07:20;1.87;;;1.07;;
19179;SDS011;9722;48.754;8.868;2024-02-21T17:10:41;1.73;;;1.50;;
19179;SDS011;9722;48.754;8.868;2024-02-21T17:14:01;2.57;;;1.80;;
19179;SDS011;9722;48.754;8.868;2024-02-21T17:17:23;2.27;;;1.90;;
19179;SDS011;9722;48.754;8.868;2024-02-21T17:20:43;3.80;;;2.70;;
19179;SDS011;9722;48.754;8.868;2024-02-21T17:24:04;5.00;;;2.57;;
19179;SDS011;9722;48.754;8.868;2024-02-21T17:27:25;1.73;;;1.63;;
19179;SDS011;9722;48.754;8.868;2024-02-21T17:30:46;5.17;;;2.80;;
19179;SDS011;9722;48.754;8.868;2024-02-21T17:34:07;6.00;;;2.80;;
19179;SDS011;9722;48.754;8.868;2024-02-21T17:37:28;3.37;;;2.60;;
19179;SDS011;9722;48.754;8.868;2024-02-21T17:40:48;3.93;;;2.60;;
19179;SDS011;9722;48.754;8.868;2024-02-21T17:44:10;2.97;;;2.40;;
19179;SDS011;9722;48.754;8.868;2024-02-21T17:47:30;4.47;;;3.20;;
19179;SDS011;9722;48.754;8.868;2024-02-21T17:50:51;2.97;;;2.37;;
19179;SDS011;9722;48.754;8.868;2024-02-21T17:54:11;2.97;;;2.27;;
19179;SDS011;9722;48.754;8.868;2024-02-21T17:57:34;6.03;;;2.27;;
19179;SDS011;9722;48.754;8.868;2024-02-21T18:00:54;4.87;;;1.83;;
19179;SDS011;9722;48.754;8.868;2024-02-21T18:04:19;2.17;;;1.77;;
19179;SDS011;9722;48.754;8.868;2024-02-21T18:07:40;3.03;;;1.73;;
19179;SDS011;9722;48.754;8.868;2024-02-21T18:11:00;2.10;;;1.90;;
19179;SDS011;9722;48.754;8.868;2024-02-21T18:14:21;3.30;;;2.30;;
19179;SDS011;9722;48.754;8.868;2024-02-21T18:17:42;3.07;;;2.70;;
19179;SDS011;9722;48.754;8.868;2024-02-21T18:21:02;2.60;;;2.40;;
19179;SDS011;9722;48.754;8.868;2024-02-21T18:24:23;5.00;;;3.13;;
19179;SDS011;9722;48.754;8.868;2024-02-21T18:27:43;2.50;;;2.20;;
19179;SDS011;9722;48.754;8.868;2024-02-21T18:31:04;3.53;;;2.40;;
19179;SDS011;9722;48.754;8.868;2024-02-21T18:34:26;3.67;;;2.53;;
19179;SDS011;9722;48.754;8.868;2024-02-21T18:37:46;2.40;;;2.20;;
19179;SDS011;9722;48.754;8.868;2024-02-21T18:41:08;5.17;;;1.80;;
19179;SDS011;9722;48.754;8.868;2024-02-21T18:44:29;2.20;;;1.57;;
19179;SDS011;9722;48.754;8.868;2024-02-21T18:47:49;3.70;;;2.40;;
19179;SDS011;9722;48.754;8.868;2024-02-21T18:51:15;2.70;;;2.30;;
19179;SDS011;9722;48.754;8.868;2024-02-21T18:54:39;3.90;;;2.70;;
19179;SDS011;9722;48.754;8.868;2024-02-21T18:58:01;4.47;;;3.70;;
19179;SDS011;9722;48.754;8.868;2024-02-21T19:01:22;3.60;;;3.30;;
19179;SDS011;9722;48.754;8.868;2024-02-21T19:04:43;2.70;;;2.40;;
19179;SDS011;9722;48.754;8.868;2024-02-21T19:08:04;3.47;;;2.37;;
19179;SDS011;9722;48.754;8.868;2024-02-21T19:11:24;4.37;;;2.30;;
19179;SDS011;9722;48.754;8.868;2024-02-21T19:14:45;3.27;;;2.97;;
19179;SDS011;9722;48.754;8.868;2024-02-21T19:18:05;2.60;;;2.40;;
19179;SDS011;9722;48.754;8.868;2024-02-21T19:21:26;5.97;;;2.80;;
19179;SDS011;9722;48.754;8.868;2024-02-21T19:24:47;3.07;;;2.50;;
19179;SDS011;9722;48.754;8.868;2024-02-21T19:28:10;2.27;;;1.77;;
19179;SDS011;9722;48.754;8.868;2024-02-21T19:31:31;4.73;;;2.20;;
19179;SDS011;9722;48.754;8.868;2024-02-21T19:34:51;2.77;;;2.27;;
19179;SDS011;9722;48.754;8.868;2024-02-21T19:38:12;4.60;;;2.17;;
19179;SDS011;9722;48.754;8.868;2024-02-21T19:41:33;3.20;;;2.03;;
19179;SDS011;9722;48.754;8.868;2024-02-21T19:44:53;3.27;;;2.57;;
19179;SDS011;9722;48.754;8.868;2024-02-21T19:48:13;4.33;;;3.33;;
19179;SDS011;9722;48.754;8.868;2024-02-21T19:51:35;3.20;;;2.90;;
19179;SDS011;9722;48.754;8.868;2024-02-21T19:54:56;3.60;;;2.97;;
19179;SDS011;9722;48.754;8.868;2024-02-21T19:58:17;2.87;;;2.60;;
19179;SDS011;9722;48.754;8.868;2024-02-21T20:01:38;3.53;;;2.63;;
19179;SDS011;9722;48.754;8.868;2024-02-21T20:05:02;3.70;;;2.87;;
19179;SDS011;9722;48.754;8.868;2024-02-21T20:08:23;2.87;;;2.60;;
19179;SDS011;9722;48.754;8.868;2024-02-21T20:11:43;2.97;;;2.70;;
19179;SDS011;9722;48.754;8.868;2024-02-21T20:15:04;1.73;;;1.63;;
19179;SDS011;9722;48.754;8.868;2024-02-21T20:18:25;5.50;;;0.90;;
19179;SDS011;9722;48.754;8.868;2024-02-21T20:21:46;2.07;;;0.90;;
19179;SDS011;9722;48.754;8.868;2024-02-21T20:25:09;1.40;;;1.30;;
19179;SDS011;9722;48.754;8.868;2024-02-21T20:28:30;1.00;;;0.80;;